sensor_id;sensor_type;location;lat;lon;timestamp;pressure;altitude;pressure_sealevel;temperature;humidity
11987;BME280;6053;51.382;6.768;2023-03-18T00:01:27;100477.22;;;13.27;99.73
11987;BME280;6053;51.382;6.768;2023-03-18T00:03:56;100471.16;;;12.74;100.00
11987;BME280;6053;51.382;6.768;2023-03-18T00:06:26;100470.91;;;13.31;100.00
11987;BME280;6053;51.382;6.768;2023-03-18T00:08:54;100471.94;;;12.69;100.00
11987;BME280;6053;51.382;6.768;2023-03-18T00:11:23;100470.00;;;12.70;100.00
11987;BME280;6053;51.382;6.768;2023-03-18T00:13:53;100467.78;;;13.28;100.00
11987;BME280;6053;51.382;6.768;2023-03-18T00:16:21;100472.47;;;13.05;100.00
11987;BME280;6053;51.382;6.768;2023-03-18T00:18:49;100480.97;;;12.98;100.00
11987;BME280;6053;51.382;6.768;2023-03-18T00:21:19;100503.50;;;13.46;99.15
11987;BME280;6053;51.382;6.768;2023-03-18T00:23:48;100494.00;;;13.20;99.38
11987;BME280;6053;51.382;6.768;2023-03-18T00:26:22;100501.84;;;12.89;100.00
11987;BME280;6053;51.382;6.768;2023-03-18T00:28:51;100485.28;;;12.56;100.00
11987;BME280;6053;51.382;6.768;2023-03-18T00:31:20;100488.56;;;13.08;100.00
11987;BME280;6053;51.382;6.768;2023-03-18T00:33:48;100484.25;;;12.95;100.00
11987;BME280;6053;51.382;6.768;2023-03-18T00:36:17;100495.41;;;12.67;100.00
11987;BME280;6053;51.382;6.768;2023-03-18T00:38:54;100482.63;;;11.98;100.00
11987;BME280;6053;51.382;6.768;2023-03-18T00:41:25;100478.78;;;13.23;100.00
11987;BME280;6053;51.382;6.768;2023-03-18T00:43:54;100483.84;;;12.70;100.00
11987;BME280;6053;51.382;6.768;2023-03-18T00:46:25;100490.88;;;12.44;100.00
11987;BME280;6053;51.382;6.768;2023-03-18T00:48:58;100484.63;;;13.04;100.00
11987;BME280;6053;51.382;6.768;2023-03-18T00:51:31;100483.66;;;13.32;100.00
11987;BME280;6053;51.382;6.768;2023-03-18T00:54:03;100467.34;;;12.41;100.00
11987;BME280;6053;51.382;6.768;2023-03-18T00:56:34;100462.97;;;13.40;100.00
11987;BME280;6053;51.382;6.768;2023-03-18T00:59:04;100464.25;;;14.03;95.55
11987;BME280;6053;51.382;6.768;2023-03-18T01:01:33;100473.22;;;14.43;92.03
11987;BME280;6053;51.382;6.768;2023-03-18T01:04:02;100472.50;;;14.57;90.46
11987;BME280;6053;51.382;6.768;2023-03-18T01:06:34;100480.16;;;14.45;90.69
11987;BME280;6053;51.382;6.768;2023-03-18T01:09:06;100473.47;;;14.41;90.92
11987;BME280;6053;51.382;6.768;2023-03-18T01:11:37;100476.00;;;14.48;90.46
11987;BME280;6053;51.382;6.768;2023-03-18T01:14:05;100497.91;;;14.12;91.70
11987;BME280;6053;51.382;6.768;2023-03-18T01:16:34;100492.28;;;13.58;96.36
11987;BME280;6053;51.382;6.768;2023-03-18T01:19:02;100495.16;;;14.17;92.39
11987;BME280;6053;51.382;6.768;2023-03-18T01:21:31;100496.28;;;14.48;90.47
11987;BME280;6053;51.382;6.768;2023-03-18T01:23:59;100494.69;;;13.98;93.42
11987;BME280;6053;51.382;6.768;2023-03-18T01:26:29;100495.91;;;13.36;98.37
11987;BME280;6053;51.382;6.768;2023-03-18T01:28:57;100494.22;;;12.80;100.00
11987;BME280;6053;51.382;6.768;2023-03-18T01:31:26;100498.31;;;12.94;100.00
11987;BME280;6053;51.382;6.768;2023-03-18T01:33:55;100503.19;;;13.42;100.00
11987;BME280;6053;51.382;6.768;2023-03-18T01:36:24;100516.34;;;13.52;100.00
11987;BME280;6053;51.382;6.768;2023-03-18T01:38:52;100505.34;;;14.11;94.27
11987;BME280;6053;51.382;6.768;2023-03-18T01:41:20;100510.47;;;14.25;94.37
11987;BME280;6053;51.382;6.768;2023-03-18T01:43:51;100505.06;;;14.62;90.32
11987;BME280;6053;51.382;6.768;2023-03-18T01:46:37;100504.09;;;13.48;99.71
11987;BME280;6053;51.382;6.768;2023-03-18T01:49:17;100511.59;;;13.75;97.14
11987;BME280;6053;51.382;6.768;2023-03-18T01:51:51;100514.59;;;14.17;94.96
11987;BME280;6053;51.382;6.768;2023-03-18T01:54:22;100501.00;;;14.48;91.78
11987;BME280;6053;51.382;6.768;2023-03-18T01:56:51;100491.13;;;14.03;95.67
11987;BME280;6053;51.382;6.768;2023-03-18T01:59:24;100487.03;;;14.37;91.97
11987;BME280;6053;51.382;6.768;2023-03-18T02:02:03;100483.25;;;14.49;90.80
11987;BME280;6053;51.382;6.768;2023-03-18T02:04:37;100489.25;;;14.68;89.30
11987;BME280;6053;51.382;6.768;2023-03-18T02:07:06;100486.16;;;14.64;89.65
11987;BME280;6053;51.382;6.768;2023-03-18T02:09:34;100480.38;;;14.71;89.11
11987;BME280;6053;51.382;6.768;2023-03-18T02:12:04;100478.22;;;14.46;90.99
11987;BME280;6053;51.382;6.768;2023-03-18T02:14:36;100483.25;;;13.89;95.02
11987;BME280;6053;51.382;6.768;2023-03-18T02:17:09;100483.44;;;13.83;96.05
11987;BME280;6053;51.382;6.768;2023-03-18T02:19:53;100481.25;;;14.12;93.78
11987;BME280;6053;51.382;6.768;2023-03-18T02:22:28;100486.56;;;13.91;95.23
11987;BME280;6053;51.382;6.768;2023-03-18T02:25:18;100492.03;;;14.08;94.14
11987;BME280;6053;51.382;6.768;2023-03-18T02:27:53;100490.00;;;13.99;94.90
11987;BME280;6053;51.382;6.768;2023-03-18T02:30:26;100481.75;;;14.36;91.56
11987;BME280;6053;51.382;6.768;2023-03-18T02:32:58;100480.84;;;14.25;92.08
11987;BME280;6053;51.382;6.768;2023-03-18T02:35:28;100483.72;;;14.41;91.36
11987;BME280;6053;51.382;6.768;2023-03-18T02:37:57;100487.00;;;14.32;91.62
11987;BME280;6053;51.382;6.768;2023-03-18T02:40:29;100473.91;;;14.28;91.33
11987;BME280;6053;51.382;6.768;2023-03-18T02:43:18;100484.44;;;14.58;89.41
11987;BME280;6053;51.382;6.768;2023-03-18T02:46:04;100482.16;;;14.50;89.55
11987;BME280;6053;51.382;6.768;2023-03-18T02:48:36;100480.84;;;14.57;89.05
11987;BME280;6053;51.382;6.768;2023-03-18T02:51:06;100481.94;;;14.56;88.97
11987;BME280;6053;51.382;6.768;2023-03-18T02:53:36;100485.28;;;14.58;88.81
11987;BME280;6053;51.382;6.768;2023-03-18T02:56:06;100488.66;;;14.60;88.59
11987;BME280;6053;51.382;6.768;2023-03-18T02:58:36;100493.13;;;14.67;88.18
11987;BME280;6053;51.382;6.768;2023-03-18T03:01:06;100495.09;;;14.66;88.46
11987;BME280;6053;51.382;6.768;2023-03-18T03:03:35;100501.72;;;14.65;88.27
11987;BME280;6053;51.382;6.768;2023-03-18T03:06:04;100495.59;;;14.63;88.59
11987;BME280;6053;51.382;6.768;2023-03-18T03:08:34;100500.34;;;14.63;88.21
11987;BME280;6053;51.382;6.768;2023-03-18T03:11:03;100500.63;;;14.66;88.25
11987;BME280;6053;51.382;6.768;2023-03-18T03:13:32;100500.03;;;14.32;90.73
11987;BME280;6053;51.382;6.768;2023-03-18T03:16:01;100492.56;;;14.37;90.29
11987;BME280;6053;51.382;6.768;2023-03-18T03:18:30;100499.03;;;14.16;92.11
11987;BME280;6053;51.382;6.768;2023-03-18T03:20:58;100492.34;;;13.85;94.85
11987;BME280;6053;51.382;6.768;2023-03-18T03:23:26;100502.56;;;13.84;94.92
11987;BME280;6053;51.382;6.768;2023-03-18T03:25:55;100496.78;;;14.13;92.32
11987;BME280;6053;51.382;6.768;2023-03-18T03:28:23;100503.75;;;14.15;92.50
11987;BME280;6053;51.382;6.768;2023-03-18T03:30:53;100499.53;;;14.40;90.60
11987;BME280;6053;51.382;6.768;2023-03-18T03:33:25;100504.88;;;14.47;89.71
11987;BME280;6053;51.382;6.768;2023-03-18T03:35:54;100513.19;;;14.47;90.02
11987;BME280;6053;51.382;6.768;2023-03-18T03:38:24;100512.50;;;14.29;91.93
11987;BME280;6053;51.382;6.768;2023-03-18T03:40:53;100511.97;;;14.32;90.86
11987;BME280;6053;51.382;6.768;2023-03-18T03:43:21;100515.06;;;14.36;91.26
11987;BME280;6053;51.382;6.768;2023-03-18T03:45:50;100512.44;;;14.51;89.43
11987;BME280;6053;51.382;6.768;2023-03-18T03:48:18;100519.19;;;14.60;88.56
11987;BME280;6053;51.382;6.768;2023-03-18T03:50:49;100522.31;;;14.69;88.28
11987;BME280;6053;51.382;6.768;2023-03-18T03:53:18;100523.16;;;14.70;87.99
11987;BME280;6053;51.382;6.768;2023-03-18T03:55:47;100525.53;;;14.56;89.53
11987;BME280;6053;51.382;6.768;2023-03-18T03:58:15;100539.09;;;14.52;88.87
11987;BME280;6053;51.382;6.768;2023-03-18T04:00:44;100542.72;;;14.53;89.25
11987;BME280;6053;51.382;6.768;2023-03-18T04:03:12;100538.91;;;14.64;88.86
11987;BME280;6053;51.382;6.768;2023-03-18T04:05:40;100539.63;;;14.22;91.44
11987;BME280;6053;51.382;6.768;2023-03-18T04:08:10;100528.53;;;14.22;91.61
11987;BME280;6053;51.382;6.768;2023-03-18T04:10:38;100539.66;;;14.27;92.25
11987;BME280;6053;51.382;6.768;2023-03-18T04:13:07;100535.13;;;14.48;89.98
11987;BME280;6053;51.382;6.768;2023-03-18T04:15:36;100546.72;;;14.40;91.59
11987;BME280;6053;51.382;6.768;2023-03-18T04:18:05;100550.97;;;14.21;93.33
11987;BME280;6053;51.382;6.768;2023-03-18T04:20:33;100551.91;;;14.31;91.61
11987;BME280;6053;51.382;6.768;2023-03-18T04:23:04;100549.81;;;14.17;92.66
11987;BME280;6053;51.382;6.768;2023-03-18T04:25:34;100556.38;;;13.83;96.49
11987;BME280;6053;51.382;6.768;2023-03-18T04:28:03;100552.19;;;14.08;93.34
11987;BME280;6053;51.382;6.768;2023-03-18T04:30:32;100550.03;;;13.44;100.00
11987;BME280;6053;51.382;6.768;2023-03-18T04:33:00;100548.56;;;14.02;94.97
11987;BME280;6053;51.382;6.768;2023-03-18T04:35:29;100552.22;;;13.64;99.15
11987;BME280;6053;51.382;6.768;2023-03-18T04:37:58;100558.19;;;13.73;98.46
11987;BME280;6053;51.382;6.768;2023-03-18T04:40:26;100559.03;;;13.34;100.00
11987;BME280;6053;51.382;6.768;2023-03-18T04:42:56;100566.59;;;13.39;100.00
11987;BME280;6053;51.382;6.768;2023-03-18T04:45:24;100567.84;;;13.70;98.38
11987;BME280;6053;51.382;6.768;2023-03-18T04:47:53;100557.31;;;12.94;100.00
11987;BME280;6053;51.382;6.768;2023-03-18T04:50:22;100563.13;;;13.71;99.71
11987;BME280;6053;51.382;6.768;2023-03-18T04:52:50;100554.53;;;13.94;96.22
11987;BME280;6053;51.382;6.768;2023-03-18T04:55:19;100558.81;;;14.02;96.38
11987;BME280;6053;51.382;6.768;2023-03-18T04:57:48;100573.47;;;13.36;100.00
11987;BME280;6053;51.382;6.768;2023-03-18T05:00:20;100577.03;;;14.20;93.99
11987;BME280;6053;51.382;6.768;2023-03-18T05:02:49;100580.22;;;14.55;90.85
11987;BME280;6053;51.382;6.768;2023-03-18T05:05:18;100579.19;;;13.90;97.29
11987;BME280;6053;51.382;6.768;2023-03-18T05:07:47;100576.59;;;13.84;97.64
11987;BME280;6053;51.382;6.768;2023-03-18T05:10:15;100574.31;;;14.25;92.56
11987;BME280;6053;51.382;6.768;2023-03-18T05:12:44;100577.56;;;14.44;91.66
11987;BME280;6053;51.382;6.768;2023-03-18T05:15:13;100581.06;;;14.56;90.71
11987;BME280;6053;51.382;6.768;2023-03-18T05:17:42;100576.88;;;14.58;90.91
11987;BME280;6053;51.382;6.768;2023-03-18T05:20:12;100584.97;;;13.67;98.09
11987;BME280;6053;51.382;6.768;2023-03-18T05:22:41;100580.81;;;13.86;97.05
11987;BME280;6053;51.382;6.768;2023-03-18T05:25:10;100587.19;;;13.65;99.57
11987;BME280;6053;51.382;6.768;2023-03-18T05:27:38;100585.63;;;13.96;96.86
11987;BME280;6053;51.382;6.768;2023-03-18T05:30:09;100589.53;;;13.95;96.24
11987;BME280;6053;51.382;6.768;2023-03-18T05:32:38;100584.94;;;14.06;94.96
11987;BME280;6053;51.382;6.768;2023-03-18T05:35:09;100586.34;;;14.08;94.53
11987;BME280;6053;51.382;6.768;2023-03-18T05:37:37;100587.63;;;14.23;93.55
11987;BME280;6053;51.382;6.768;2023-03-18T05:40:07;100591.94;;;13.91;96.66
11987;BME280;6053;51.382;6.768;2023-03-18T05:42:38;100595.75;;;13.63;98.62
11987;BME280;6053;51.382;6.768;2023-03-18T05:45:21;100590.13;;;14.24;93.94
11987;BME280;6053;51.382;6.768;2023-03-18T05:47:50;100596.38;;;14.36;91.84
11987;BME280;6053;51.382;6.768;2023-03-18T05:50:29;100596.47;;;14.47;90.86
11987;BME280;6053;51.382;6.768;2023-03-18T05:52:57;100593.63;;;14.42;91.24
11987;BME280;6053;51.382;6.768;2023-03-18T05:55:27;100602.22;;;14.62;89.62
11987;BME280;6053;51.382;6.768;2023-03-18T05:57:57;100605.78;;;14.35;91.93
11987;BME280;6053;51.382;6.768;2023-03-18T06:00:27;100616.34;;;13.89;95.29
11987;BME280;6053;51.382;6.768;2023-03-18T06:02:56;100610.69;;;14.28;92.52
11987;BME280;6053;51.382;6.768;2023-03-18T06:05:27;100607.97;;;14.55;90.23
11987;BME280;6053;51.382;6.768;2023-03-18T06:07:56;100615.53;;;14.65;89.28
11987;BME280;6053;51.382;6.768;2023-03-18T06:10:25;100619.09;;;14.55;89.72
11987;BME280;6053;51.382;6.768;2023-03-18T06:12:54;100624.28;;;14.52;90.42
11987;BME280;6053;51.382;6.768;2023-03-18T06:15:23;100632.69;;;14.57;89.66
11987;BME280;6053;51.382;6.768;2023-03-18T06:17:51;100632.28;;;14.70;88.60
11987;BME280;6053;51.382;6.768;2023-03-18T06:20:20;100634.41;;;14.63;89.16
11987;BME280;6053;51.382;6.768;2023-03-18T06:22:50;100637.81;;;14.70;88.99
11987;BME280;6053;51.382;6.768;2023-03-18T06:25:20;100637.53;;;14.01;93.86
11987;BME280;6053;51.382;6.768;2023-03-18T06:27:49;100640.94;;;13.64;97.06
11987;BME280;6053;51.382;6.768;2023-03-18T06:30:18;100638.38;;;13.79;96.29
11987;BME280;6053;51.382;6.768;2023-03-18T06:32:46;100634.84;;;13.84;95.75
11987;BME280;6053;51.382;6.768;2023-03-18T06:35:15;100647.09;;;14.32;92.22
11987;BME280;6053;51.382;6.768;2023-03-18T06:37:44;100654.19;;;14.23;92.86
11987;BME280;6053;51.382;6.768;2023-03-18T06:40:14;100654.56;;;14.31;92.13
11987;BME280;6053;51.382;6.768;2023-03-18T06:42:43;100646.03;;;14.38;91.46
11987;BME280;6053;51.382;6.768;2023-03-18T06:45:12;100652.25;;;13.79;95.27
11987;BME280;6053;51.382;6.768;2023-03-18T06:47:41;100644.97;;;14.17;92.76
11987;BME280;6053;51.382;6.768;2023-03-18T06:50:10;100648.97;;;14.26;91.88
11987;BME280;6053;51.382;6.768;2023-03-18T06:52:40;100647.03;;;14.05;93.35
11987;BME280;6053;51.382;6.768;2023-03-18T06:55:09;100644.94;;;15.57;84.82
11987;BME280;6053;51.382;6.768;2023-03-18T06:57:39;100643.66;;;16.33;80.23
11987;BME280;6053;51.382;6.768;2023-03-18T07:00:09;100651.59;;;16.82;77.17
11987;BME280;6053;51.382;6.768;2023-03-18T07:02:39;100654.19;;;15.68;81.42
11987;BME280;6053;51.382;6.768;2023-03-18T07:05:08;100656.28;;;15.51;82.92
11987;BME280;6053;51.382;6.768;2023-03-18T07:07:39;100651.63;;;16.04;80.76
11987;BME280;6053;51.382;6.768;2023-03-18T07:10:14;100656.66;;;16.07;80.16
11987;BME280;6053;51.382;6.768;2023-03-18T07:12:45;100657.78;;;16.11;80.90
11987;BME280;6053;51.382;6.768;2023-03-18T07:15:15;100659.41;;;16.80;76.87
11987;BME280;6053;51.382;6.768;2023-03-18T07:17:46;100661.34;;;17.82;71.85
11987;BME280;6053;51.382;6.768;2023-03-18T07:20:15;100662.28;;;18.32;70.01
11987;BME280;6053;51.382;6.768;2023-03-18T07:22:45;100664.47;;;17.14;73.71
11987;BME280;6053;51.382;6.768;2023-03-18T07:25:14;100659.50;;;16.33;78.39
11987;BME280;6053;51.382;6.768;2023-03-18T07:27:42;100666.69;;;16.13;80.00
11987;BME280;6053;51.382;6.768;2023-03-18T07:30:14;100670.00;;;16.88;76.04
11987;BME280;6053;51.382;6.768;2023-03-18T07:32:43;100670.78;;;15.58;82.40
11987;BME280;6053;51.382;6.768;2023-03-18T07:35:13;100677.97;;;15.86;82.66
11987;BME280;6053;51.382;6.768;2023-03-18T07:37:42;100667.31;;;15.41;84.75
11987;BME280;6053;51.382;6.768;2023-03-18T07:40:11;100675.28;;;14.68;89.74
11987;BME280;6053;51.382;6.768;2023-03-18T07:42:41;100679.75;;;14.96;88.51
11987;BME280;6053;51.382;6.768;2023-03-18T07:45:09;100684.50;;;15.32;86.17
11987;BME280;6053;51.382;6.768;2023-03-18T07:47:39;100685.25;;;14.20;93.41
11987;BME280;6053;51.382;6.768;2023-03-18T07:50:09;100684.81;;;15.04;89.12
11987;BME280;6053;51.382;6.768;2023-03-18T07:52:38;100693.13;;;15.04;88.49
11987;BME280;6053;51.382;6.768;2023-03-18T07:55:07;100684.66;;;15.53;85.85
11987;BME280;6053;51.382;6.768;2023-03-18T07:57:36;100693.28;;;15.19;87.02
11987;BME280;6053;51.382;6.768;2023-03-18T08:00:07;100688.44;;;15.42;86.02
11987;BME280;6053;51.382;6.768;2023-03-18T08:02:36;100693.13;;;16.11;81.95
11987;BME280;6053;51.382;6.768;2023-03-18T08:05:07;100693.56;;;14.91;88.33
11987;BME280;6053;51.382;6.768;2023-03-18T08:07:36;100697.06;;;15.40;86.80
11987;BME280;6053;51.382;6.768;2023-03-18T08:10:07;100703.00;;;15.22;85.94
11987;BME280;6053;51.382;6.768;2023-03-18T08:12:36;100709.03;;;16.20;82.96
11987;BME280;6053;51.382;6.768;2023-03-18T08:15:19;100712.97;;;17.64;75.33
11987;BME280;6053;51.382;6.768;2023-03-18T08:17:48;100716.53;;;18.16;72.16
11987;BME280;6053;51.382;6.768;2023-03-18T08:20:18;100717.09;;;16.95;77.45
11987;BME280;6053;51.382;6.768;2023-03-18T08:22:47;100714.38;;;15.52;84.92
11987;BME280;6053;51.382;6.768;2023-03-18T08:25:16;100708.69;;;16.12;83.24
11987;BME280;6053;51.382;6.768;2023-03-18T08:27:45;100721.84;;;17.00;78.45
11987;BME280;6053;51.382;6.768;2023-03-18T08:30:13;100724.41;;;16.38;79.54
11987;BME280;6053;51.382;6.768;2023-03-18T08:32:43;100723.28;;;17.68;74.94
11987;BME280;6053;51.382;6.768;2023-03-18T08:35:12;100733.53;;;16.23;80.53
11987;BME280;6053;51.382;6.768;2023-03-18T08:37:41;100734.63;;;16.17;82.08
11987;BME280;6053;51.382;6.768;2023-03-18T08:40:11;100730.91;;;16.01;81.82
11987;BME280;6053;51.382;6.768;2023-03-18T08:42:40;100737.09;;;15.71;84.10
11987;BME280;6053;51.382;6.768;2023-03-18T08:45:09;100728.88;;;15.54;85.08
11987;BME280;6053;51.382;6.768;2023-03-18T08:47:38;100731.28;;;16.78;80.19
11987;BME280;6053;51.382;6.768;2023-03-18T08:50:09;100733.50;;;16.81;78.30
11987;BME280;6053;51.382;6.768;2023-03-18T08:52:38;100734.16;;;17.39;76.97
11987;BME280;6053;51.382;6.768;2023-03-18T08:55:09;100734.44;;;18.04;73.57
11987;BME280;6053;51.382;6.768;2023-03-18T08:57:37;100736.94;;;17.70;74.29
11987;BME280;6053;51.382;6.768;2023-03-18T09:00:07;100737.31;;;18.54;71.31
11987;BME280;6053;51.382;6.768;2023-03-18T09:02:37;100730.81;;;17.53;73.11
11987;BME280;6053;51.382;6.768;2023-03-18T09:05:06;100731.94;;;17.93;73.82
11987;BME280;6053;51.382;6.768;2023-03-18T09:07:35;100738.91;;;17.90;72.27
11987;BME280;6053;51.382;6.768;2023-03-18T09:10:04;100746.13;;;17.14;76.35
11987;BME280;6053;51.382;6.768;2023-03-18T09:12:34;100741.59;;;16.78;76.07
11987;BME280;6053;51.382;6.768;2023-03-18T09:15:04;100747.72;;;16.90;76.46
11987;BME280;6053;51.382;6.768;2023-03-18T09:17:33;100746.16;;;16.41;79.61
11987;BME280;6053;51.382;6.768;2023-03-18T09:20:21;100751.91;;;15.50;82.21
11987;BME280;6053;51.382;6.768;2023-03-18T09:22:52;100743.41;;;15.02;88.09
11987;BME280;6053;51.382;6.768;2023-03-18T09:25:20;100757.66;;;16.08;81.51
11987;BME280;6053;51.382;6.768;2023-03-18T09:27:50;100747.81;;;17.10;77.28
11987;BME280;6053;51.382;6.768;2023-03-18T09:30:19;100750.88;;;17.60;74.70
11987;BME280;6053;51.382;6.768;2023-03-18T09:32:47;100747.28;;;17.95;72.94
11987;BME280;6053;51.382;6.768;2023-03-18T09:35:16;100749.22;;;17.43;75.41
11987;BME280;6053;51.382;6.768;2023-03-18T09:37:45;100743.56;;;16.92;76.73
11987;BME280;6053;51.382;6.768;2023-03-18T09:40:21;100743.44;;;16.04;79.19
11987;BME280;6053;51.382;6.768;2023-03-18T09:43:04;100743.50;;;16.19;82.09
11987;BME280;6053;51.382;6.768;2023-03-18T09:45:41;100745.13;;;15.68;83.17
11987;BME280;6053;51.382;6.768;2023-03-18T09:48:47;100748.50;;;16.12;81.44
11987;BME280;6053;51.382;6.768;2023-03-18T09:51:36;100738.94;;;15.93;81.38
11987;BME280;6053;51.382;6.768;2023-03-18T09:54:14;100738.88;;;16.35;80.49
11987;BME280;6053;51.382;6.768;2023-03-18T09:56:46;100733.97;;;16.58;77.69
11987;BME280;6053;51.382;6.768;2023-03-18T09:59:20;100742.53;;;16.46;79.14
11987;BME280;6053;51.382;6.768;2023-03-18T10:01:54;100742.25;;;17.36;73.60
11987;BME280;6053;51.382;6.768;2023-03-18T10:04:26;100742.53;;;17.39;75.62
11987;BME280;6053;51.382;6.768;2023-03-18T10:07:01;100735.25;;;17.43;71.95
11987;BME280;6053;51.382;6.768;2023-03-18T10:09:37;100738.88;;;18.00;71.87
11987;BME280;6053;51.382;6.768;2023-03-18T10:12:14;100733.88;;;17.87;69.18
11987;BME280;6053;51.382;6.768;2023-03-18T10:14:48;100736.53;;;18.48;70.24
11987;BME280;6053;51.382;6.768;2023-03-18T10:17:23;100740.56;;;17.60;71.42
11987;BME280;6053;51.382;6.768;2023-03-18T10:19:57;100731.94;;;17.93;69.45
11987;BME280;6053;51.382;6.768;2023-03-18T10:22:49;100734.69;;;17.67;70.20
11987;BME280;6053;51.382;6.768;2023-03-18T10:25:27;100736.09;;;17.90;73.03
11987;BME280;6053;51.382;6.768;2023-03-18T10:28:16;100733.88;;;18.77;68.81
11987;BME280;6053;51.382;6.768;2023-03-18T10:31:00;100735.78;;;18.87;68.68
11987;BME280;6053;51.382;6.768;2023-03-18T10:33:43;100733.09;;;18.72;69.35
11987;BME280;6053;51.382;6.768;2023-03-18T10:36:18;100738.59;;;18.12;70.78
11987;BME280;6053;51.382;6.768;2023-03-18T10:38:50;100741.63;;;18.96;68.07
11987;BME280;6053;51.382;6.768;2023-03-18T10:41:22;100741.19;;;18.73;66.75
11987;BME280;6053;51.382;6.768;2023-03-18T10:43:55;100738.19;;;18.54;68.31
11987;BME280;6053;51.382;6.768;2023-03-18T10:46:25;100730.50;;;18.05;70.71
11987;BME280;6053;51.382;6.768;2023-03-18T10:48:58;100722.69;;;18.02;70.54
11987;BME280;6053;51.382;6.768;2023-03-18T10:51:33;100727.84;;;18.50;67.63
11987;BME280;6053;51.382;6.768;2023-03-18T10:54:09;100727.44;;;19.21;65.52
11987;BME280;6053;51.382;6.768;2023-03-18T10:56:39;100725.75;;;18.86;64.22
11987;BME280;6053;51.382;6.768;2023-03-18T10:59:12;100719.38;;;19.20;63.41
11987;BME280;6053;51.382;6.768;2023-03-18T11:01:46;100717.44;;;18.60;64.54
11987;BME280;6053;51.382;6.768;2023-03-18T11:04:18;100716.13;;;18.48;69.73
11987;BME280;6053;51.382;6.768;2023-03-18T11:06:50;100714.56;;;18.16;68.79
11987;BME280;6053;51.382;6.768;2023-03-18T11:09:28;100709.91;;;17.14;69.34
11987;BME280;6053;51.382;6.768;2023-03-18T11:12:03;100717.84;;;18.33;67.03
11987;BME280;6053;51.382;6.768;2023-03-18T11:14:32;100722.34;;;18.34;66.63
11987;BME280;6053;51.382;6.768;2023-03-18T11:17:16;100740.06;;;18.64;65.78
11987;BME280;6053;51.382;6.768;2023-03-18T11:19:48;100724.34;;;18.89;64.88
11987;BME280;6053;51.382;6.768;2023-03-18T11:22:19;100735.72;;;18.97;63.83
11987;BME280;6053;51.382;6.768;2023-03-18T11:25:02;100725.16;;;18.14;67.25
11987;BME280;6053;51.382;6.768;2023-03-18T11:27:38;100729.97;;;17.93;67.10
11987;BME280;6053;51.382;6.768;2023-03-18T11:30:18;100732.19;;;18.01;67.93
11987;BME280;6053;51.382;6.768;2023-03-18T11:33:14;100727.72;;;18.05;67.89
11987;BME280;6053;51.382;6.768;2023-03-18T11:35:47;100734.13;;;18.06;68.38
11987;BME280;6053;51.382;6.768;2023-03-18T11:38:20;100729.94;;;18.03;66.79
11987;BME280;6053;51.382;6.768;2023-03-18T11:40:53;100733.59;;;17.99;68.50
11987;BME280;6053;51.382;6.768;2023-03-18T11:43:32;100727.16;;;17.93;67.61
11987;BME280;6053;51.382;6.768;2023-03-18T11:46:03;100733.06;;;17.71;71.51
11987;BME280;6053;51.382;6.768;2023-03-18T11:48:35;100726.13;;;18.54;70.11
11987;BME280;6053;51.382;6.768;2023-03-18T11:51:35;100722.38;;;18.19;69.10
11987;BME280;6053;51.382;6.768;2023-03-18T11:54:16;100718.53;;;18.70;65.67
11987;BME280;6053;51.382;6.768;2023-03-18T11:56:48;100717.97;;;17.93;68.43
11987;BME280;6053;51.382;6.768;2023-03-18T11:59:29;100724.59;;;18.87;65.90
11987;BME280;6053;51.382;6.768;2023-03-18T12:02:28;100723.25;;;17.99;66.46
11987;BME280;6053;51.382;6.768;2023-03-18T12:05:20;100726.53;;;18.32;67.98
11987;BME280;6053;51.382;6.768;2023-03-18T12:08:08;100722.91;;;18.31;67.58
11987;BME280;6053;51.382;6.768;2023-03-18T12:10:43;100725.25;;;17.48;71.83
11987;BME280;6053;51.382;6.768;2023-03-18T12:13:32;100717.13;;;17.00;69.74
11987;BME280;6053;51.382;6.768;2023-03-18T12:16:12;100724.34;;;16.96;70.87
11987;BME280;6053;51.382;6.768;2023-03-18T12:19:03;100703.78;;;17.17;69.44
11987;BME280;6053;51.382;6.768;2023-03-18T12:22:02;100711.81;;;17.09;70.43
11987;BME280;6053;51.382;6.768;2023-03-18T12:25:15;100716.31;;;17.46;72.58
11987;BME280;6053;51.382;6.768;2023-03-18T12:27:59;100719.69;;;17.37;71.32
11987;BME280;6053;51.382;6.768;2023-03-18T12:30:51;100710.75;;;17.40;70.50
11987;BME280;6053;51.382;6.768;2023-03-18T12:33:36;100713.19;;;18.08;70.58
11987;BME280;6053;51.382;6.768;2023-03-18T12:36:21;100712.97;;;17.59;71.19
11987;BME280;6053;51.382;6.768;2023-03-18T12:39:15;100707.69;;;17.57;71.12
11987;BME280;6053;51.382;6.768;2023-03-18T12:41:56;100699.59;;;17.40;71.27
11987;BME280;6053;51.382;6.768;2023-03-18T12:44:48;100699.03;;;17.49;69.50
11987;BME280;6053;51.382;6.768;2023-03-18T12:47:21;100701.53;;;17.65;73.88
11987;BME280;6053;51.382;6.768;2023-03-18T12:49:56;100704.03;;;17.26;69.66
11987;BME280;6053;51.382;6.768;2023-03-18T12:52:34;100701.81;;;17.28;69.66
11987;BME280;6053;51.382;6.768;2023-03-18T12:55:14;100694.53;;;16.96;70.21
11987;BME280;6053;51.382;6.768;2023-03-18T12:57:47;100689.84;;;17.17;70.58
11987;BME280;6053;51.382;6.768;2023-03-18T13:00:24;100686.75;;;16.93;74.95
11987;BME280;6053;51.382;6.768;2023-03-18T13:02:59;100684.78;;;17.30;73.03
11987;BME280;6053;51.382;6.768;2023-03-18T13:05:42;100680.06;;;17.30;71.86
11987;BME280;6053;51.382;6.768;2023-03-18T13:08:46;100677.81;;;16.91;73.43
11987;BME280;6053;51.382;6.768;2023-03-18T13:14:23;100681.44;;;17.79;75.60
11987;BME280;6053;51.382;6.768;2023-03-18T13:16:54;100686.19;;;17.68;69.79
11987;BME280;6053;51.382;6.768;2023-03-18T13:19:24;100675.88;;;17.58;69.50
11987;BME280;6053;51.382;6.768;2023-03-18T13:22:02;100686.16;;;17.07;72.09
11987;BME280;6053;51.382;6.768;2023-03-18T13:24:58;100679.19;;;16.84;73.14
11987;BME280;6053;51.382;6.768;2023-03-18T13:27:49;100685.91;;;17.08;72.48
11987;BME280;6053;51.382;6.768;2023-03-18T13:30:32;100679.66;;;16.60;73.13
11987;BME280;6053;51.382;6.768;2023-03-18T13:33:49;100680.34;;;17.18;78.92